sensor_id;sensor_type;location;lat;lon;timestamp;P1;durP1;ratioP1;P2;durP2;ratioP2
22470;SDS011;11402;51.374;6.594;2022-09-20T00:01:16;10.82;;;4.47;;
22470;SDS011;11402;51.374;6.594;2022-09-20T00:03:45;12.65;;;4.30;;
22470;SDS011;11402;51.374;6.594;2022-09-20T00:06:13;15.15;;;4.53;;
22470;SDS011;11402;51.374;6.594;2022-09-20T00:08:40;10.05;;;4.32;;
22470;SDS011;11402;51.374;6.594;2022-09-20T00:11:08;12.82;;;4.88;;
22470;SDS011;11402;51.374;6.594;2022-09-20T00:13:35;14.57;;;4.47;;
22470;SDS011;11402;51.374;6.594;2022-09-20T00:16:06;14.80;;;4.85;;
22470;SDS011;11402;51.374;6.594;2022-09-20T00:18:34;12.90;;;4.75;;
22470;SDS011;11402;51.374;6.594;2022-09-20T00:21:01;10.25;;;4.40;;
22470;SDS011;11402;51.374;6.594;2022-09-20T00:23:26;11.38;;;4.38;;
22470;SDS011;11402;51.374;6.594;2022-09-20T00:25:57;15.77;;;5.20;;
22470;SDS011;11402;51.374;6.594;2022-09-20T00:28:25;9.25;;;4.55;;
22470;SDS011;11402;51.374;6.594;2022-09-20T00:30:51;13.40;;;5.50;;
22470;SDS011;11402;51.374;6.594;2022-09-20T00:33:18;13.48;;;4.88;;
22470;SDS011;11402;51.374;6.594;2022-09-20T00:35:44;17.55;;;5.75;;
22470;SDS011;11402;51.374;6.594;2022-09-20T00:38:10;12.43;;;4.53;;
22470;SDS011;11402;51.374;6.594;2022-09-20T00:40:37;13.82;;;5.45;;
22470;SDS011;11402;51.374;6.594;2022-09-20T00:43:04;16.33;;;4.75;;
22470;SDS011;11402;51.374;6.594;2022-09-20T00:45:29;12.35;;;4.43;;
22470;SDS011;11402;51.374;6.594;2022-09-20T00:47:56;13.40;;;4.95;;
22470;SDS011;11402;51.374;6.594;2022-09-20T00:50:29;14.98;;;4.90;;
22470;SDS011;11402;51.374;6.594;2022-09-20T00:53:23;18.88;;;5.35;;
22470;SDS011;11402;51.374;6.594;2022-09-20T00:56:00;9.95;;;4.68;;
22470;SDS011;11402;51.374;6.594;2022-09-20T00:58:32;15.48;;;4.72;;
22470;SDS011;11402;51.374;6.594;2022-09-20T01:01:04;12.43;;;4.57;;
22470;SDS011;11402;51.374;6.594;2022-09-20T01:03:30;16.88;;;5.18;;
22470;SDS011;11402;51.374;6.594;2022-09-20T01:06:00;13.80;;;4.80;;
22470;SDS011;11402;51.374;6.594;2022-09-20T01:08:29;17.70;;;5.10;;
22470;SDS011;11402;51.374;6.594;2022-09-20T01:10:56;21.05;;;4.97;;
22470;SDS011;11402;51.374;6.594;2022-09-20T01:13:22;17.17;;;5.03;;
22470;SDS011;11402;51.374;6.594;2022-09-20T01:15:47;20.08;;;5.15;;
22470;SDS011;11402;51.374;6.594;2022-09-20T01:18:14;13.10;;;5.07;;
22470;SDS011;11402;51.374;6.594;2022-09-20T01:20:42;12.57;;;4.78;;
22470;SDS011;11402;51.374;6.594;2022-09-20T01:28:36;12.65;;;4.63;;
22470;SDS011;11402;51.374;6.594;2022-09-20T01:31:17;14.40;;;4.40;;
22470;SDS011;11402;51.374;6.594;2022-09-20T01:33:54;10.57;;;4.53;;
22470;SDS011;11402;51.374;6.594;2022-09-20T01:39:41;16.38;;;5.13;;
22470;SDS011;11402;51.374;6.594;2022-09-20T01:42:13;13.05;;;4.70;;
22470;SDS011;11402;51.374;6.594;2022-09-20T01:44:52;16.75;;;4.50;;
22470;SDS011;11402;51.374;6.594;2022-09-20T01:49:56;17.42;;;5.20;;
22470;SDS011;11402;51.374;6.594;2022-09-20T02:04:22;10.80;;;4.13;;
22470;SDS011;11402;51.374;6.594;2022-09-20T02:10:30;15.25;;;4.57;;
22470;SDS011;11402;51.374;6.594;2022-09-20T02:13:00;12.45;;;4.22;;
22470;SDS011;11402;51.374;6.594;2022-09-20T02:23:53;13.20;;;4.30;;
22470;SDS011;11402;51.374;6.594;2022-09-20T02:26:30;8.65;;;4.00;;
22470;SDS011;11402;51.374;6.594;2022-09-20T02:29:09;11.63;;;3.67;;
22470;SDS011;11402;51.374;6.594;2022-09-20T02:31:55;10.38;;;3.83;;
22470;SDS011;11402;51.374;6.594;2022-09-20T02:39:44;11.27;;;3.90;;
22470;SDS011;11402;51.374;6.594;2022-09-20T02:42:25;11.35;;;3.65;;
22470;SDS011;11402;51.374;6.594;2022-09-20T02:45:03;8.35;;;3.22;;
22470;SDS011;11402;51.374;6.594;2022-09-20T02:47:37;9.02;;;3.70;;
22470;SDS011;11402;51.374;6.594;2022-09-20T02:52:59;12.15;;;3.88;;
22470;SDS011;11402;51.374;6.594;2022-09-20T02:58:45;11.00;;;3.88;;
22470;SDS011;11402;51.374;6.594;2022-09-20T03:07:14;10.15;;;4.00;;
22470;SDS011;11402;51.374;6.594;2022-09-20T03:18:38;15.20;;;4.03;;
22470;SDS011;11402;51.374;6.594;2022-09-20T03:21:17;19.83;;;4.70;;
22470;SDS011;11402;51.374;6.594;2022-09-20T03:26:53;13.65;;;4.72;;
22470;SDS011;11402;51.374;6.594;2022-09-20T03:32:48;13.77;;;4.35;;
22470;SDS011;11402;51.374;6.594;2022-09-20T03:41:13;16.88;;;4.90;;
22470;SDS011;11402;51.374;6.594;2022-09-20T03:44:05;18.40;;;5.38;;
22470;SDS011;11402;51.374;6.594;2022-09-20T03:47:11;15.43;;;5.03;;
22470;SDS011;11402;51.374;6.594;2022-09-20T03:50:03;12.15;;;4.82;;
22470;SDS011;11402;51.374;6.594;2022-09-20T03:52:56;14.80;;;4.90;;
22470;SDS011;11402;51.374;6.594;2022-09-20T03:55:57;14.63;;;5.30;;
22470;SDS011;11402;51.374;6.594;2022-09-20T03:58:38;13.82;;;4.88;;
22470;SDS011;11402;51.374;6.594;2022-09-20T04:01:37;10.55;;;4.68;;
22470;SDS011;11402;51.374;6.594;2022-09-20T04:14:53;12.40;;;5.35;;
22470;SDS011;11402;51.374;6.594;2022-09-20T04:23:07;13.43;;;5.32;;
22470;SDS011;11402;51.374;6.594;2022-09-20T04:25:54;9.80;;;4.65;;
22470;SDS011;11402;51.374;6.594;2022-09-20T04:28:23;14.15;;;5.55;;
22470;SDS011;11402;51.374;6.594;2022-09-20T04:30:55;13.98;;;5.85;;
22470;SDS011;11402;51.374;6.594;2022-09-20T04:33:30;13.20;;;5.72;;
22470;SDS011;11402;51.374;6.594;2022-09-20T04:36:13;13.20;;;5.70;;
22470;SDS011;11402;51.374;6.594;2022-09-20T04:47:55;13.50;;;6.10;;
22470;SDS011;11402;51.374;6.594;2022-09-20T04:53:10;13.50;;;5.97;;
22470;SDS011;11402;51.374;6.594;2022-09-20T04:58:39;14.95;;;5.93;;
22470;SDS011;11402;51.374;6.594;2022-09-20T05:10:33;15.13;;;7.15;;
22470;SDS011;11402;51.374;6.594;2022-09-20T05:15:38;15.40;;;9.00;;
22470;SDS011;11402;51.374;6.594;2022-09-20T05:18:27;19.92;;;9.45;;
22470;SDS011;11402;51.374;6.594;2022-09-20T05:21:06;14.88;;;7.88;;
22470;SDS011;11402;51.374;6.594;2022-09-20T05:29:27;17.55;;;7.70;;
22470;SDS011;11402;51.374;6.594;2022-09-20T05:32:05;16.00;;;8.18;;
22470;SDS011;11402;51.374;6.594;2022-09-20T05:34:53;15.65;;;8.50;;
22470;SDS011;11402;51.374;6.594;2022-09-20T05:37:45;16.88;;;8.75;;
22470;SDS011;11402;51.374;6.594;2022-09-20T05:41:10;14.88;;;8.00;;
22470;SDS011;11402;51.374;6.594;2022-09-20T05:43:56;15.40;;;8.02;;
22470;SDS011;11402;51.374;6.594;2022-09-20T05:46:39;18.42;;;7.82;;
22470;SDS011;11402;51.374;6.594;2022-09-20T05:52:28;18.15;;;7.97;;
22470;SDS011;11402;51.374;6.594;2022-09-20T06:01:22;19.45;;;8.27;;
22470;SDS011;11402;51.374;6.594;2022-09-20T06:12:27;15.65;;;8.45;;
22470;SDS011;11402;51.374;6.594;2022-09-20T06:17:48;20.45;;;9.50;;
22470;SDS011;11402;51.374;6.594;2022-09-20T06:20:32;18.92;;;9.05;;
22470;SDS011;11402;51.374;6.594;2022-09-20T06:23:18;16.50;;;8.30;;
22470;SDS011;11402;51.374;6.594;2022-09-20T06:33:15;15.75;;;8.13;;
22470;SDS011;11402;51.374;6.594;2022-09-20T06:35:46;23.75;;;9.13;;
22470;SDS011;11402;51.374;6.594;2022-09-20T06:39:02;15.57;;;7.75;;
22470;SDS011;11402;51.374;6.594;2022-09-20T06:41:33;18.85;;;8.13;;
22470;SDS011;11402;51.374;6.594;2022-09-20T06:44:01;18.17;;;8.68;;
22470;SDS011;11402;51.374;6.594;2022-09-20T06:46:29;23.10;;;8.18;;
22470;SDS011;11402;51.374;6.594;2022-09-20T06:48:56;15.88;;;8.27;;
22470;SDS011;11402;51.374;6.594;2022-09-20T06:51:22;14.95;;;7.80;;
22470;SDS011;11402;51.374;6.594;2022-09-20T06:53:50;14.00;;;8.18;;
22470;SDS011;11402;51.374;6.594;2022-09-20T06:56:18;14.52;;;7.70;;
22470;SDS011;11402;51.374;6.594;2022-09-20T06:58:46;15.23;;;8.05;;
22470;SDS011;11402;51.374;6.594;2022-09-20T07:01:12;18.95;;;8.65;;
22470;SDS011;11402;51.374;6.594;2022-09-20T07:03:39;14.65;;;8.23;;
22470;SDS011;11402;51.374;6.594;2022-09-20T07:06:05;31.42;;;11.93;;
22470;SDS011;11402;51.374;6.594;2022-09-20T07:08:31;35.83;;;20.90;;
22470;SDS011;11402;51.374;6.594;2022-09-20T07:11:01;22.42;;;9.93;;
22470;SDS011;11402;51.374;6.594;2022-09-20T07:13:28;16.52;;;8.50;;
22470;SDS011;11402;51.374;6.594;2022-09-20T07:16:00;21.42;;;8.75;;
22470;SDS011;11402;51.374;6.594;2022-09-20T07:18:28;31.25;;;11.85;;
22470;SDS011;11402;51.374;6.594;2022-09-20T07:20:54;22.27;;;9.23;;
22470;SDS011;11402;51.374;6.594;2022-09-20T07:23:23;22.00;;;7.72;;
22470;SDS011;11402;51.374;6.594;2022-09-20T07:25:50;20.83;;;8.40;;
22470;SDS011;11402;51.374;6.594;2022-09-20T07:28:16;28.17;;;11.57;;
22470;SDS011;11402;51.374;6.594;2022-09-20T07:30:44;16.23;;;7.60;;
22470;SDS011;11402;51.374;6.594;2022-09-20T07:33:10;19.15;;;7.32;;
22470;SDS011;11402;51.374;6.594;2022-09-20T07:35:41;25.92;;;10.48;;
22470;SDS011;11402;51.374;6.594;2022-09-20T07:38:06;31.60;;;10.85;;
22470;SDS011;11402;51.374;6.594;2022-09-20T07:40:32;20.90;;;6.75;;
22470;SDS011;11402;51.374;6.594;2022-09-20T07:42:58;16.33;;;6.32;;
22470;SDS011;11402;51.374;6.594;2022-09-20T07:45:23;22.60;;;7.47;;
22470;SDS011;11402;51.374;6.594;2022-09-20T07:47:49;24.40;;;11.95;;
22470;SDS011;11402;51.374;6.594;2022-09-20T07:50:17;14.75;;;5.72;;
22470;SDS011;11402;51.374;6.594;2022-09-20T07:52:43;18.17;;;6.40;;
22470;SDS011;11402;51.374;6.594;2022-09-20T07:55:09;10.95;;;6.00;;
22470;SDS011;11402;51.374;6.594;2022-09-20T07:57:35;13.38;;;5.53;;
22470;SDS011;11402;51.374;6.594;2022-09-20T08:00:03;15.02;;;6.65;;
22470;SDS011;11402;51.374;6.594;2022-09-20T08:02:30;18.75;;;8.90;;
22470;SDS011;11402;51.374;6.594;2022-09-20T08:04:56;24.83;;;10.13;;
22470;SDS011;11402;51.374;6.594;2022-09-20T08:07:21;15.93;;;7.65;;
22470;SDS011;11402;51.374;6.594;2022-09-20T08:09:47;12.95;;;6.68;;
22470;SDS011;11402;51.374;6.594;2022-09-20T08:12:13;12.13;;;5.13;;
22470;SDS011;11402;51.374;6.594;2022-09-20T08:14:38;13.35;;;4.95;;
22470;SDS011;11402;51.374;6.594;2022-09-20T08:17:05;14.75;;;6.00;;
22470;SDS011;11402;51.374;6.594;2022-09-20T08:19:30;14.32;;;5.50;;
22470;SDS011;11402;51.374;6.594;2022-09-20T08:21:56;11.65;;;4.25;;
22470;SDS011;11402;51.374;6.594;2022-09-20T08:24:21;9.35;;;4.55;;
22470;SDS011;11402;51.374;6.594;2022-09-20T08:26:50;13.07;;;5.38;;
22470;SDS011;11402;51.374;6.594;2022-09-20T08:29:16;15.18;;;4.72;;
22470;SDS011;11402;51.374;6.594;2022-09-20T08:31:42;14.52;;;4.72;;
22470;SDS011;11402;51.374;6.594;2022-09-20T08:34:08;12.77;;;5.00;;
22470;SDS011;11402;51.374;6.594;2022-09-20T08:36:37;13.95;;;5.55;;
22470;SDS011;11402;51.374;6.594;2022-09-20T08:39:05;12.30;;;4.43;;
22470;SDS011;11402;51.374;6.594;2022-09-20T08:41:32;14.57;;;4.65;;
22470;SDS011;11402;51.374;6.594;2022-09-20T08:44:35;9.77;;;3.83;;
22470;SDS011;11402;51.374;6.594;2022-09-20T08:47:20;9.98;;;3.88;;
22470;SDS011;11402;51.374;6.594;2022-09-20T08:49:53;9.82;;;3.78;;
22470;SDS011;11402;51.374;6.594;2022-09-20T08:52:28;11.45;;;3.35;;
22470;SDS011;11402;51.374;6.594;2022-09-20T08:54:56;9.98;;;3.03;;
22470;SDS011;11402;51.374;6.594;2022-09-20T08:57:23;7.15;;;3.10;;
22470;SDS011;11402;51.374;6.594;2022-09-20T08:59:54;13.43;;;3.65;;
22470;SDS011;11402;51.374;6.594;2022-09-20T09:02:22;12.13;;;3.42;;
22470;SDS011;11402;51.374;6.594;2022-09-20T09:04:48;9.95;;;3.17;;
22470;SDS011;11402;51.374;6.594;2022-09-20T09:07:16;10.45;;;2.95;;
22470;SDS011;11402;51.374;6.594;2022-09-20T09:09:45;8.10;;;2.45;;
22470;SDS011;11402;51.374;6.594;2022-09-20T09:12:15;8.55;;;2.55;;
22470;SDS011;11402;51.374;6.594;2022-09-20T09:14:57;12.45;;;3.38;;
22470;SDS011;11402;51.374;6.594;2022-09-20T09:17:28;8.00;;;2.70;;
22470;SDS011;11402;51.374;6.594;2022-09-20T09:19:57;10.43;;;2.72;;
22470;SDS011;11402;51.374;6.594;2022-09-20T09:27:49;9.90;;;2.83;;
22470;SDS011;11402;51.374;6.594;2022-09-20T09:30:26;12.68;;;2.75;;
22470;SDS011;11402;51.374;6.594;2022-09-20T09:33:33;9.20;;;3.67;;
22470;SDS011;11402;51.374;6.594;2022-09-20T09:35:53;9.00;;;3.08;;
22470;SDS011;11402;51.374;6.594;2022-09-20T09:38:25;10.07;;;3.53;;
22470;SDS011;11402;51.374;6.594;2022-09-20T09:40:57;12.18;;;3.35;;
22470;SDS011;11402;51.374;6.594;2022-09-20T09:43:25;7.80;;;2.60;;
22470;SDS011;11402;51.374;6.594;2022-09-20T09:45:54;9.43;;;3.03;;
22470;SDS011;11402;51.374;6.594;2022-09-20T09:51:08;7.65;;;2.70;;
22470;SDS011;11402;51.374;6.594;2022-09-20T09:53:35;8.68;;;3.33;;
22470;SDS011;11402;51.374;6.594;2022-09-20T09:56:15;8.20;;;3.35;;
22470;SDS011;11402;51.374;6.594;2022-09-20T10:01:52;5.57;;;1.42;;
22470;SDS011;11402;51.374;6.594;2022-09-20T10:07:02;10.93;;;3.58;;
22470;SDS011;11402;51.374;6.594;2022-09-20T10:09:35;6.10;;;2.78;;
22470;SDS011;11402;51.374;6.594;2022-09-20T10:20:35;7.72;;;1.80;;
22470;SDS011;11402;51.374;6.594;2022-09-20T10:25:54;7.28;;;1.52;;
22470;SDS011;11402;51.374;6.594;2022-09-20T10:34:21;3.83;;;1.30;;
22470;SDS011;11402;51.374;6.594;2022-09-20T10:37:01;7.47;;;1.08;;
22470;SDS011;11402;51.374;6.594;2022-09-20T10:45:06;4.45;;;1.23;;
22470;SDS011;11402;51.374;6.594;2022-09-20T10:50:40;5.30;;;1.25;;
22470;SDS011;11402;51.374;6.594;2022-09-20T10:53:21;17.73;;;12.05;;
22470;SDS011;11402;51.374;6.594;2022-09-20T10:56:12;4.93;;;1.30;;
22470;SDS011;11402;51.374;6.594;2022-09-20T11:01:47;3.77;;;0.80;;
22470;SDS011;11402;51.374;6.594;2022-09-20T11:10:04;2.17;;;0.70;;
22470;SDS011;11402;51.374;6.594;2022-09-20T11:13:23;4.78;;;0.80;;
22470;SDS011;11402;51.374;6.594;2022-09-20T11:16:11;6.13;;;1.88;;
22470;SDS011;11402;51.374;6.594;2022-09-20T11:18:48;5.13;;;1.27;;
22470;SDS011;11402;51.374;6.594;2022-09-20T11:21:27;2.38;;;0.60;;
22470;SDS011;11402;51.374;6.594;2022-09-20T11:24:01;5.78;;;0.77;;
22470;SDS011;11402;51.374;6.594;2022-09-20T11:26:41;3.78;;;0.82;;
22470;SDS011;11402;51.374;6.594;2022-09-20T11:29:20;3.10;;;0.70;;
22470;SDS011;11402;51.374;6.594;2022-09-20T11:31:54;3.63;;;0.80;;
22470;SDS011;11402;51.374;6.594;2022-09-20T11:34:29;3.95;;;1.27;;
22470;SDS011;11402;51.374;6.594;2022-09-20T11:36:58;3.25;;;1.23;;
22470;SDS011;11402;51.374;6.594;2022-09-20T11:39:28;3.33;;;0.93;;
22470;SDS011;11402;51.374;6.594;2022-09-20T11:42:15;3.17;;;0.85;;
22470;SDS011;11402;51.374;6.594;2022-09-20T11:44:44;4.72;;;1.00;;
22470;SDS011;11402;51.374;6.594;2022-09-20T11:47:12;6.55;;;0.90;;
22470;SDS011;11402;51.374;6.594;2022-09-20T11:49:45;2.13;;;0.75;;
22470;SDS011;11402;51.374;6.594;2022-09-20T11:55:37;7.07;;;1.05;;
22470;SDS011;11402;51.374;6.594;2022-09-20T11:58:07;5.38;;;0.90;;
22470;SDS011;11402;51.374;6.594;2022-09-20T12:00:39;17.58;;;5.90;;
22470;SDS011;11402;51.374;6.594;2022-09-20T12:03:21;14.75;;;3.97;;
22470;SDS011;11402;51.374;6.594;2022-09-20T12:06:07;29.10;;;12.90;;
22470;SDS011;11402;51.374;6.594;2022-09-20T12:08:35;20.75;;;10.07;;
22470;SDS011;11402;51.374;6.594;2022-09-20T12:11:05;8.27;;;3.20;;
22470;SDS011;11402;51.374;6.594;2022-09-20T12:13:34;8.50;;;3.25;;
22470;SDS011;11402;51.374;6.594;2022-09-20T12:16:07;12.77;;;5.75;;
22470;SDS011;11402;51.374;6.594;2022-09-20T12:21:17;4.53;;;1.80;;
22470;SDS011;11402;51.374;6.594;2022-09-20T12:23:45;5.05;;;2.30;;
22470;SDS011;11402;51.374;6.594;2022-09-20T12:28:51;10.40;;;2.78;;
22470;SDS011;11402;51.374;6.594;2022-09-20T12:36:32;7.47;;;1.75;;
22470;SDS011;11402;51.374;6.594;2022-09-20T12:46:59;9.55;;;4.72;;
22470;SDS011;11402;51.374;6.594;2022-09-20T12:52:34;3.53;;;1.15;;
22470;SDS011;11402;51.374;6.594;2022-09-20T13:00:46;6.53;;;1.52;;
22470;SDS011;11402;51.374;6.594;2022-09-20T13:08:31;7.43;;;1.63;;
22470;SDS011;11402;51.374;6.594;2022-09-20T13:13:45;6.90;;;1.20;;
22470;SDS011;11402;51.374;6.594;2022-09-20T13:16:18;5.50;;;1.10;;
22470;SDS011;11402;51.374;6.594;2022-09-20T13:19:01;3.90;;;1.00;;
22470;SDS011;11402;51.374;6.594;2022-09-20T13:21:32;4.10;;;0.80;;
22470;SDS011;11402;51.374;6.594;2022-09-20T13:24:01;6.13;;;1.23;;
22470;SDS011;11402;51.374;6.594;2022-09-20T13:26:32;5.53;;;1.13;;
22470;SDS011;11402;51.374;6.594;2022-09-20T13:29:07;6.07;;;1.05;;
22470;SDS011;11402;51.374;6.594;2022-09-20T13:31:43;5.65;;;1.75;;
22470;SDS011;11402;51.374;6.594;2022-09-20T13:34:26;6.43;;;1.08;;
22470;SDS011;11402;51.374;6.594;2022-09-20T13:36:54;4.05;;;0.82;;
22470;SDS011;11402;51.374;6.594;2022-09-20T13:39:43;5.68;;;0.90;;
22470;SDS011;11402;51.374;6.594;2022-09-20T13:42:09;3.63;;;0.65;;
22470;SDS011;11402;51.374;6.594;2022-09-20T13:44:40;5.05;;;0.95;;
22470;SDS011;11402;51.374;6.594;2022-09-20T13:47:23;3.55;;;0.80;;
22470;SDS011;11402;51.374;6.594;2022-09-20T13:50:00;7.75;;;1.60;;
22470;SDS011;11402;51.374;6.594;2022-09-20T13:52:43;3.55;;;0.85;;
22470;SDS011;11402;51.374;6.594;2022-09-20T13:55:20;4.47;;;0.77;;
22470;SDS011;11402;51.374;6.594;2022-09-20T13:57:48;6.30;;;0.82;;
22470;SDS011;11402;51.374;6.594;2022-09-20T14:00:15;5.70;;;1.00;;
22470;SDS011;11402;51.374;6.594;2022-09-20T14:02:41;5.45;;;1.05;;
22470;SDS011;11402;51.374;6.594;2022-09-20T14:05:13;2.67;;;0.70;;
22470;SDS011;11402;51.374;6.594;2022-09-20T14:07:42;3.83;;;0.98;;
22470;SDS011;11402;51.374;6.594;2022-09-20T14:10:43;5.00;;;0.98;;
22470;SDS011;11402;51.374;6.594;2022-09-20T14:13:07;2.85;;;0.80;;
22470;SDS011;11402;51.374;6.594;2022-09-20T14:15:38;3.33;;;1.10;;
22470;SDS011;11402;51.374;6.594;2022-09-20T14:18:08;5.30;;;0.90;;
22470;SDS011;11402;51.374;6.594;2022-09-20T14:20:40;4.97;;;0.90;;
22470;SDS011;11402;51.374;6.594;2022-09-20T14:23:20;13.98;;;5.50;;
22470;SDS011;11402;51.374;6.594;2022-09-20T14:26:07;13.20;;;5.43;;
22470;SDS011;11402;51.374;6.594;2022-09-20T14:28:49;13.25;;;4.55;;
22470;SDS011;11402;51.374;6.594;2022-09-20T14:31:29;14.18;;;8.73;;
22470;SDS011;11402;51.374;6.594;2022-09-20T14:33:57;9.80;;;5.90;;
22470;SDS011;11402;51.374;6.594;2022-09-20T14:36:25;15.35;;;9.50;;
22470;SDS011;11402;51.374;6.594;2022-09-20T14:38:54;8.73;;;3.33;;
22470;SDS011;11402;51.374;6.594;2022-09-20T14:41:32;18.02;;;6.47;;
22470;SDS011;11402;51.374;6.594;2022-09-20T14:44:00;12.68;;;6.50;;
22470;SDS011;11402;51.374;6.594;2022-09-20T14:46:28;11.38;;;4.60;;
22470;SDS011;11402;51.374;6.594;2022-09-20T14:51:50;9.18;;;3.17;;
22470;SDS011;11402;51.374;6.594;2022-09-20T14:54:35;11.43;;;3.70;;
22470;SDS011;11402;51.374;6.594;2022-09-20T14:57:01;6.30;;;2.15;;
22470;SDS011;11402;51.374;6.594;2022-09-20T14:59:34;13.82;;;7.30;;
22470;SDS011;11402;51.374;6.594;2022-09-20T15:02:03;10.07;;;3.33;;
22470;SDS011;11402;51.374;6.594;2022-09-20T15:04:32;7.47;;;1.83;;
22470;SDS011;11402;51.374;6.594;2022-09-20T15:07:06;8.93;;;2.70;;
22470;SDS011;11402;51.374;6.594;2022-09-20T15:09:35;12.80;;;6.78;;
22470;SDS011;11402;51.374;6.594;2022-09-20T15:12:05;7.43;;;2.75;;
22470;SDS011;11402;51.374;6.594;2022-09-20T15:14:36;5.85;;;2.10;;
22470;SDS011;11402;51.374;6.594;2022-09-20T15:17:04;7.07;;;2.70;;
22470;SDS011;11402;51.374;6.594;2022-09-20T15:19:32;9.18;;;3.13;;
22470;SDS011;11402;51.374;6.594;2022-09-20T15:21:58;9.95;;;4.35;;
22470;SDS011;11402;51.374;6.594;2022-09-20T15:24:25;8.55;;;2.33;;
22470;SDS011;11402;51.374;6.594;2022-09-20T15:26:52;7.40;;;2.90;;
22470;SDS011;11402;51.374;6.594;2022-09-20T15:29:18;6.60;;;2.03;;
22470;SDS011;11402;51.374;6.594;2022-09-20T15:31:46;7.07;;;2.17;;
22470;SDS011;11402;51.374;6.594;2022-09-20T15:34:14;6.05;;;1.92;;
22470;SDS011;11402;51.374;6.594;2022-09-20T15:36:43;8.02;;;1.85;;
22470;SDS011;11402;51.374;6.594;2022-09-20T15:39:13;6.38;;;1.13;;
22470;SDS011;11402;51.374;6.594;2022-09-20T15:41:40;4.57;;;1.25;;
22470;SDS011;11402;51.374;6.594;2022-09-20T15:44:10;4.68;;;1.25;;
22470;SDS011;11402;51.374;6.594;2022-09-20T15:46:38;5.70;;;0.98;;
22470;SDS011;11402;51.374;6.594;2022-09-20T15:49:06;8.00;;;1.73;;
22470;SDS011;11402;51.374;6.594;2022-09-20T15:51:33;4.05;;;1.30;;
22470;SDS011;11402;51.374;6.594;2022-09-20T15:54:02;5.18;;;1.35;;
22470;SDS011;11402;51.374;6.594;2022-09-20T15:59:00;3.85;;;1.10;;
22470;SDS011;11402;51.374;6.594;2022-09-20T16:01:37;5.90;;;1.38;;
22470;SDS011;11402;51.374;6.594;2022-09-20T16:04:09;3.42;;;1.13;;
22470;SDS011;11402;51.374;6.594;2022-09-20T16:06:37;4.95;;;1.38;;
22470;SDS011;11402;51.374;6.594;2022-09-20T16:09:04;4.60;;;1.20;;
22470;SDS011;11402;51.374;6.594;2022-09-20T16:11:30;5.40;;;1.20;;
22470;SDS011;11402;51.374;6.594;2022-09-20T16:13:56;4.32;;;1.55;;
22470;SDS011;11402;51.374;6.594;2022-09-20T16:16:27;7.07;;;1.77;;
22470;SDS011;11402;51.374;6.594;2022-09-20T16:18:53;9.77;;;1.80;;
22470;SDS011;11402;51.374;6.594;2022-09-20T16:21:39;4.88;;;1.10;;
22470;SDS011;11402;51.374;6.594;2022-09-20T16:24:06;4.93;;;1.40;;
22470;SDS011;11402;51.374;6.594;2022-09-20T16:26:33;5.88;;;1.58;;
22470;SDS011;11402;51.374;6.594;2022-09-20T16:29:00;6.93;;;1.30;;
22470;SDS011;11402;51.374;6.594;2022-09-20T16:31:36;4.00;;;1.13;;
22470;SDS011;11402;51.374;6.594;2022-09-20T16:34:10;7.90;;;1.30;;
22470;SDS011;11402;51.374;6.594;2022-09-20T16:36:38;7.40;;;1.42;;
22470;SDS011;11402;51.374;6.594;2022-09-20T16:39:06;4.18;;;0.95;;
22470;SDS011;11402;51.374;6.594;2022-09-20T16:41:33;5.75;;;1.02;;
22470;SDS011;11402;51.374;6.594;2022-09-20T16:44:00;7.25;;;1.30;;
22470;SDS011;11402;51.374;6.594;2022-09-20T16:46:27;3.50;;;1.20;;
22470;SDS011;11402;51.374;6.594;2022-09-20T16:48:54;5.45;;;1.38;;
22470;SDS011;11402;51.374;6.594;2022-09-20T16:51:25;5.78;;;1.15;;
22470;SDS011;11402;51.374;6.594;2022-09-20T16:53:56;6.03;;;1.20;;
22470;SDS011;11402;51.374;6.594;2022-09-20T16:56:24;5.97;;;1.17;;
22470;SDS011;11402;51.374;6.594;2022-09-20T16:58:51;5.82;;;1.30;;
22470;SDS011;11402;51.374;6.594;2022-09-20T17:01:19;3.35;;;0.88;;
22470;SDS011;11402;51.374;6.594;2022-09-20T17:03:46;5.80;;;1.05;;
22470;SDS011;11402;51.374;6.594;2022-09-20T17:06:12;5.82;;;1.00;;
22470;SDS011;11402;51.374;6.594;2022-09-20T17:08:40;5.75;;;1.10;;
22470;SDS011;11402;51.374;6.594;2022-09-20T17:11:11;3.88;;;0.85;;
22470;SDS011;11402;51.374;6.594;2022-09-20T17:13:39;7.95;;;1.40;;
22470;SDS011;11402;51.374;6.594;2022-09-20T17:16:12;5.50;;;1.05;;
22470;SDS011;11402;51.374;6.594;2022-09-20T17:18:40;4.20;;;0.98;;
22470;SDS011;11402;51.374;6.594;2022-09-20T17:21:14;6.43;;;1.20;;
22470;SDS011;11402;51.374;6.594;2022-09-20T17:23:44;4.53;;;1.05;;
22470;SDS011;11402;51.374;6.594;2022-09-20T17:26:13;4.38;;;1.00;;
22470;SDS011;11402;51.374;6.594;2022-09-20T17:28:44;2.78;;;1.00;;
22470;SDS011;11402;51.374;6.594;2022-09-20T17:31:12;3.42;;;1.45;;
22470;SDS011;11402;51.374;6.594;2022-09-20T17:33:40;5.60;;;2.35;;
22470;SDS011;11402;51.374;6.594;2022-09-20T17:36:07;6.70;;;2.30;;
22470;SDS011;11402;51.374;6.594;2022-09-20T17:38:36;2.83;;;1.35;;
22470;SDS011;11402;51.374;6.594;2022-09-20T17:41:07;4.13;;;1.70;;
22470;SDS011;11402;51.374;6.594;2022-09-20T17:43:39;6.35;;;2.00;;
22470;SDS011;11402;51.374;6.594;2022-09-20T17:46:08;9.98;;;4.40;;
22470;SDS011;11402;51.374;6.594;2022-09-20T17:48:36;11.85;;;6.70;;
22470;SDS011;11402;51.374;6.594;2022-09-20T17:51:02;13.13;;;6.10;;
22470;SDS011;11402;51.374;6.594;2022-09-20T17:53:32;10.18;;;5.70;;
22470;SDS011;11402;51.374;6.594;2022-09-20T17:56:00;16.50;;;7.45;;
22470;SDS011;11402;51.374;6.594;2022-09-20T17:58:28;14.43;;;7.88;;
22470;SDS011;11402;51.374;6.594;2022-09-20T18:01:03;11.85;;;6.35;;
22470;SDS011;11402;51.374;6.594;2022-09-20T18:03:33;9.38;;;4.57;;
22470;SDS011;11402;51.374;6.594;2022-09-20T18:06:09;11.73;;;4.78;;
22470;SDS011;11402;51.374;6.594;2022-09-20T18:08:36;6.40;;;3.72;;
22470;SDS011;11402;51.374;6.594;2022-09-20T18:11:03;5.97;;;2.80;;
22470;SDS011;11402;51.374;6.594;2022-09-20T18:13:29;8.60;;;3.40;;
22470;SDS011;11402;51.374;6.594;2022-09-20T18:15:55;9.65;;;5.30;;
22470;SDS011;11402;51.374;6.594;2022-09-20T18:18:23;14.70;;;6.55;;
22470;SDS011;11402;51.374;6.594;2022-09-20T18:20:51;12.80;;;6.43;;
22470;SDS011;11402;51.374;6.594;2022-09-20T18:23:17;13.50;;;5.70;;
22470;SDS011;11402;51.374;6.594;2022-09-20T18:25:45;9.48;;;4.88;;
22470;SDS011;11402;51.374;6.594;2022-09-20T18:28:30;10.27;;;4.30;;
22470;SDS011;11402;51.374;6.594;2022-09-20T18:30:58;12.43;;;5.07;;
22470;SDS011;11402;51.374;6.594;2022-09-20T18:33:25;9.98;;;4.68;;
22470;SDS011;11402;51.374;6.594;2022-09-20T18:36:00;10.75;;;4.60;;
22470;SDS011;11402;51.374;6.594;2022-09-20T18:38:27;7.38;;;4.20;;
22470;SDS011;11402;51.374;6.594;2022-09-20T18:40:54;11.57;;;4.50;;
22470;SDS011;11402;51.374;6.594;2022-09-20T18:43:22;12.40;;;5.10;;
22470;SDS011;11402;51.374;6.594;2022-09-20T18:45:50;10.75;;;5.13;;
22470;SDS011;11402;51.374;6.594;2022-09-20T18:48:18;9.07;;;5.32;;
22470;SDS011;11402;51.374;6.594;2022-09-20T18:50:54;12.32;;;6.10;;
22470;SDS011;11402;51.374;6.594;2022-09-20T18:53:20;12.50;;;6.38;;
22470;SDS011;11402;51.374;6.594;2022-09-20T18:55:48;11.88;;;5.60;;
22470;SDS011;11402;51.374;6.594;2022-09-20T18:58:17;9.05;;;4.95;;
22470;SDS011;11402;51.374;6.594;2022-09-20T19:00:45;10.13;;;4.45;;
22470;SDS011;11402;51.374;6.594;2022-09-20T19:03:17;10.75;;;4.78;;
22470;SDS011;11402;51.374;6.594;2022-09-20T19:05:47;9.90;;;4.85;;
22470;SDS011;11402;51.374;6.594;2022-09-20T19:10:50;12.07;;;6.70;;
22470;SDS011;11402;51.374;6.594;2022-09-20T19:13:33;14.52;;;6.75;;
22470;SDS011;11402;51.374;6.594;2022-09-20T19:16:15;11.77;;;5.70;;